sensor_id;sensor_type;location;lat;lon;timestamp;P1;durP1;ratioP1;P2;durP2;ratioP2
21798;SDS011;24973;47.178;15.316;2022-12-29T00:01:30;8.60;;;4.10;;
21798;SDS011;24973;47.178;15.316;2022-12-29T00:04:20;6.60;;;4.73;;
21798;SDS011;24973;47.178;15.316;2022-12-29T00:07:10;10.67;;;2.83;;
21798;SDS011;24973;47.178;15.316;2022-12-29T00:09:59;8.40;;;4.53;;
21798;SDS011;24973;47.178;15.316;2022-12-29T00:12:48;5.83;;;3.93;;
21798;SDS011;24973;47.178;15.316;2022-12-29T00:15:54;3.17;;;2.87;;
21798;SDS011;24973;47.178;15.316;2022-12-29T00:18:43;4.30;;;3.53;;
21798;SDS011;24973;47.178;15.316;2022-12-29T00:21:33;3.93;;;3.40;;
21798;SDS011;24973;47.178;15.316;2022-12-29T00:24:39;3.23;;;2.47;;
21798;SDS011;24973;47.178;15.316;2022-12-29T00:27:45;3.37;;;2.47;;
21798;SDS011;24973;47.178;15.316;2022-12-29T00:30:52;6.90;;;4.00;;
21798;SDS011;24973;47.178;15.316;2022-12-29T00:33:58;4.23;;;3.20;;
21798;SDS011;24973;47.178;15.316;2022-12-29T00:37:05;3.17;;;2.87;;
21798;SDS011;24973;47.178;15.316;2022-12-29T00:39:54;2.27;;;2.07;;
21798;SDS011;24973;47.178;15.316;2022-12-29T00:43:05;1.37;;;1.27;;
21798;SDS011;24973;47.178;15.316;2022-12-29T00:46:08;3.63;;;2.43;;
21798;SDS011;24973;47.178;15.316;2022-12-29T00:49:00;2.80;;;2.57;;
21798;SDS011;24973;47.178;15.316;2022-12-29T00:52:10;3.50;;;3.20;;
21798;SDS011;24973;47.178;15.316;2022-12-29T00:55:00;2.27;;;2.10;;
21798;SDS011;24973;47.178;15.316;2022-12-29T00:57:49;3.87;;;3.47;;
21798;SDS011;24973;47.178;15.316;2022-12-29T01:00:38;4.80;;;2.97;;
21798;SDS011;24973;47.178;15.316;2022-12-29T01:03:26;5.03;;;4.53;;
21798;SDS011;24973;47.178;15.316;2022-12-29T01:06:15;2.50;;;1.87;;
21798;SDS011;24973;47.178;15.316;2022-12-29T01:09:06;2.57;;;1.97;;
21798;SDS011;24973;47.178;15.316;2022-12-29T01:12:13;1.97;;;1.80;;
21798;SDS011;24973;47.178;15.316;2022-12-29T01:15:02;4.93;;;3.80;;
21798;SDS011;24973;47.178;15.316;2022-12-29T01:17:52;1.93;;;1.63;;
21798;SDS011;24973;47.178;15.316;2022-12-29T01:20:41;4.60;;;3.37;;
21798;SDS011;24973;47.178;15.316;2022-12-29T01:23:30;4.43;;;3.27;;
21798;SDS011;24973;47.178;15.316;2022-12-29T01:26:20;2.20;;;2.10;;
21798;SDS011;24973;47.178;15.316;2022-12-29T01:29:09;3.37;;;3.00;;
21798;SDS011;24973;47.178;15.316;2022-12-29T01:31:58;3.13;;;2.90;;
21798;SDS011;24973;47.178;15.316;2022-12-29T01:34:47;7.07;;;3.03;;
21798;SDS011;24973;47.178;15.316;2022-12-29T01:37:35;3.53;;;2.50;;
21798;SDS011;24973;47.178;15.316;2022-12-29T01:40:24;3.00;;;2.80;;
21798;SDS011;24973;47.178;15.316;2022-12-29T01:43:14;3.07;;;2.77;;
21798;SDS011;24973;47.178;15.316;2022-12-29T01:46:03;2.60;;;2.00;;
21798;SDS011;24973;47.178;15.316;2022-12-29T01:48:53;4.10;;;1.03;;
21798;SDS011;24973;47.178;15.316;2022-12-29T01:51:48;2.37;;;2.17;;
21798;SDS011;24973;47.178;15.316;2022-12-29T01:54:42;3.63;;;2.37;;
21798;SDS011;24973;47.178;15.316;2022-12-29T01:57:37;2.70;;;2.50;;
21798;SDS011;24973;47.178;15.316;2022-12-29T02:00:31;3.57;;;3.17;;
21798;SDS011;24973;47.178;15.316;2022-12-29T02:03:20;1.60;;;1.50;;
21798;SDS011;24973;47.178;15.316;2022-12-29T02:06:14;2.80;;;2.37;;
21798;SDS011;24973;47.178;15.316;2022-12-29T02:09:07;3.40;;;3.10;;
21798;SDS011;24973;47.178;15.316;2022-12-29T02:11:56;1.13;;;1.13;;
21798;SDS011;24973;47.178;15.316;2022-12-29T02:14:46;3.30;;;2.00;;
21798;SDS011;24973;47.178;15.316;2022-12-29T02:17:53;2.00;;;1.73;;
21798;SDS011;24973;47.178;15.316;2022-12-29T02:28:36;2.37;;;1.87;;
21798;SDS011;24973;47.178;15.316;2022-12-29T02:31:50;2.97;;;2.47;;
21798;SDS011;24973;47.178;15.316;2022-12-29T02:34:47;3.37;;;2.83;;
21798;SDS011;24973;47.178;15.316;2022-12-29T02:37:41;5.20;;;2.85;;
21798;SDS011;24973;47.178;15.316;2022-12-29T02:40:40;3.03;;;2.33;;
21798;SDS011;24973;47.178;15.316;2022-12-29T02:43:36;3.87;;;2.70;;
21798;SDS011;24973;47.178;15.316;2022-12-29T02:46:33;2.10;;;1.97;;
21798;SDS011;24973;47.178;15.316;2022-12-29T02:49:27;3.20;;;2.83;;
21798;SDS011;24973;47.178;15.316;2022-12-29T02:52:23;2.93;;;1.83;;
21798;SDS011;24973;47.178;15.316;2022-12-29T02:55:18;2.93;;;2.70;;
21798;SDS011;24973;47.178;15.316;2022-12-29T02:58:15;0.90;;;0.90;;
21798;SDS011;24973;47.178;15.316;2022-12-29T03:01:16;1.77;;;1.57;;
21798;SDS011;24973;47.178;15.316;2022-12-29T03:04:17;2.30;;;2.10;;
21798;SDS011;24973;47.178;15.316;2022-12-29T03:07:19;1.63;;;1.20;;
21798;SDS011;24973;47.178;15.316;2022-12-29T03:10:14;1.50;;;1.50;;
21798;SDS011;24973;47.178;15.316;2022-12-29T03:13:19;2.50;;;1.90;;
21798;SDS011;24973;47.178;15.316;2022-12-29T03:16:34;8.20;;;2.37;;
21798;SDS011;24973;47.178;15.316;2022-12-29T03:19:34;2.90;;;2.10;;
21798;SDS011;24973;47.178;15.316;2022-12-29T03:22:25;2.37;;;2.17;;
21798;SDS011;24973;47.178;15.316;2022-12-29T03:25:20;2.73;;;2.03;;
21798;SDS011;24973;47.178;15.316;2022-12-29T03:28:15;2.17;;;2.07;;
21798;SDS011;24973;47.178;15.316;2022-12-29T03:31:09;2.13;;;1.80;;
21798;SDS011;24973;47.178;15.316;2022-12-29T03:33:59;2.27;;;2.17;;
21798;SDS011;24973;47.178;15.316;2022-12-29T03:36:50;5.63;;;2.50;;
21798;SDS011;24973;47.178;15.316;2022-12-29T03:39:44;2.70;;;1.73;;
21798;SDS011;24973;47.178;15.316;2022-12-29T03:42:33;1.93;;;1.70;;
21798;SDS011;24973;47.178;15.316;2022-12-29T03:45:24;1.70;;;0.90;;
21798;SDS011;24973;47.178;15.316;2022-12-29T03:48:13;1.60;;;1.50;;
21798;SDS011;24973;47.178;15.316;2022-12-29T03:51:02;2.17;;;1.80;;
21798;SDS011;24973;47.178;15.316;2022-12-29T03:53:52;2.63;;;1.53;;
21798;SDS011;24973;47.178;15.316;2022-12-29T03:56:41;2.60;;;2.37;;
21798;SDS011;24973;47.178;15.316;2022-12-29T03:59:29;3.00;;;2.80;;
21798;SDS011;24973;47.178;15.316;2022-12-29T04:02:18;2.60;;;2.40;;
21798;SDS011;24973;47.178;15.316;2022-12-29T04:05:07;2.87;;;2.53;;
21798;SDS011;24973;47.178;15.316;2022-12-29T04:07:56;2.83;;;2.63;;
21798;SDS011;24973;47.178;15.316;2022-12-29T04:10:46;2.47;;;2.27;;
21798;SDS011;24973;47.178;15.316;2022-12-29T04:13:36;1.93;;;1.73;;
21798;SDS011;24973;47.178;15.316;2022-12-29T04:16:27;0.67;;;0.67;;
21798;SDS011;24973;47.178;15.316;2022-12-29T04:19:16;1.50;;;1.40;;
21798;SDS011;24973;47.178;15.316;2022-12-29T04:22:05;1.83;;;1.73;;
21798;SDS011;24973;47.178;15.316;2022-12-29T04:24:53;1.43;;;1.33;;
21798;SDS011;24973;47.178;15.316;2022-12-29T04:27:44;6.53;;;1.47;;
21798;SDS011;24973;47.178;15.316;2022-12-29T04:30:32;2.47;;;2.27;;
21798;SDS011;24973;47.178;15.316;2022-12-29T04:33:21;2.40;;;2.20;;
21798;SDS011;24973;47.178;15.316;2022-12-29T04:36:10;1.10;;;1.10;;
21798;SDS011;24973;47.178;15.316;2022-12-29T04:38:59;2.53;;;2.33;;
21798;SDS011;24973;47.178;15.316;2022-12-29T04:41:48;1.77;;;1.67;;
21798;SDS011;24973;47.178;15.316;2022-12-29T04:44:38;2.43;;;1.40;;
21798;SDS011;24973;47.178;15.316;2022-12-29T04:47:30;2.57;;;1.67;;
21798;SDS011;24973;47.178;15.316;2022-12-29T04:50:19;2.20;;;2.00;;
21798;SDS011;24973;47.178;15.316;2022-12-29T04:53:08;2.03;;;1.80;;
21798;SDS011;24973;47.178;15.316;2022-12-29T04:55:57;1.40;;;1.20;;
21798;SDS011;24973;47.178;15.316;2022-12-29T04:58:46;5.20;;;2.10;;
21798;SDS011;24973;47.178;15.316;2022-12-29T05:01:36;1.53;;;1.40;;
21798;SDS011;24973;47.178;15.316;2022-12-29T05:04:25;1.73;;;1.63;;
21798;SDS011;24973;47.178;15.316;2022-12-29T05:07:14;2.43;;;2.23;;
21798;SDS011;24973;47.178;15.316;2022-12-29T05:10:03;3.27;;;2.57;;
21798;SDS011;24973;47.178;15.316;2022-12-29T05:12:53;2.37;;;2.17;;
21798;SDS011;24973;47.178;15.316;2022-12-29T05:15:45;2.33;;;2.13;;
21798;SDS011;24973;47.178;15.316;2022-12-29T05:18:37;3.40;;;2.60;;
21798;SDS011;24973;47.178;15.316;2022-12-29T05:21:26;2.73;;;2.13;;
21798;SDS011;24973;47.178;15.316;2022-12-29T05:24:15;0.67;;;0.63;;
21798;SDS011;24973;47.178;15.316;2022-12-29T05:27:04;1.53;;;1.43;;
21798;SDS011;24973;47.178;15.316;2022-12-29T05:29:52;2.47;;;2.07;;
21798;SDS011;24973;47.178;15.316;2022-12-29T05:32:41;4.87;;;3.33;;
21798;SDS011;24973;47.178;15.316;2022-12-29T05:35:32;2.77;;;2.30;;
21798;SDS011;24973;47.178;15.316;2022-12-29T05:38:21;1.87;;;1.70;;
21798;SDS011;24973;47.178;15.316;2022-12-29T05:41:10;3.00;;;2.70;;
21798;SDS011;24973;47.178;15.316;2022-12-29T05:43:59;2.83;;;2.63;;
21798;SDS011;24973;47.178;15.316;2022-12-29T05:46:48;2.83;;;2.63;;
21798;SDS011;24973;47.178;15.316;2022-12-29T05:49:36;1.50;;;1.40;;
21798;SDS011;24973;47.178;15.316;2022-12-29T05:52:27;5.73;;;3.07;;
21798;SDS011;24973;47.178;15.316;2022-12-29T05:55:15;2.67;;;2.47;;
21798;SDS011;24973;47.178;15.316;2022-12-29T05:58:04;5.10;;;2.80;;
21798;SDS011;24973;47.178;15.316;2022-12-29T06:00:53;2.13;;;2.00;;
21798;SDS011;24973;47.178;15.316;2022-12-29T06:03:42;5.23;;;2.40;;
21798;SDS011;24973;47.178;15.316;2022-12-29T06:06:33;4.83;;;3.47;;
21798;SDS011;24973;47.178;15.316;2022-12-29T06:09:23;1.33;;;1.33;;
21798;SDS011;24973;47.178;15.316;2022-12-29T06:12:12;1.63;;;1.53;;
21798;SDS011;24973;47.178;15.316;2022-12-29T06:15:01;3.23;;;2.23;;
21798;SDS011;24973;47.178;15.316;2022-12-29T06:17:50;0.60;;;0.60;;
21798;SDS011;24973;47.178;15.316;2022-12-29T06:20:39;2.57;;;2.37;;
21798;SDS011;24973;47.178;15.316;2022-12-29T06:23:27;8.37;;;3.77;;
21798;SDS011;24973;47.178;15.316;2022-12-29T06:26:18;5.07;;;3.77;;
21798;SDS011;24973;47.178;15.316;2022-12-29T06:29:07;5.87;;;3.93;;
21798;SDS011;24973;47.178;15.316;2022-12-29T06:31:56;6.90;;;2.87;;
21798;SDS011;24973;47.178;15.316;2022-12-29T06:34:45;3.60;;;3.27;;
21798;SDS011;24973;47.178;15.316;2022-12-29T06:37:34;3.33;;;2.33;;
21798;SDS011;24973;47.178;15.316;2022-12-29T06:40:23;3.10;;;2.43;;
21798;SDS011;24973;47.178;15.316;2022-12-29T06:43:13;1.30;;;1.30;;
21798;SDS011;24973;47.178;15.316;2022-12-29T06:46:02;4.73;;;2.67;;
21798;SDS011;24973;47.178;15.316;2022-12-29T06:48:51;2.37;;;2.27;;
21798;SDS011;24973;47.178;15.316;2022-12-29T06:51:39;2.70;;;2.33;;
21798;SDS011;24973;47.178;15.316;2022-12-29T06:54:28;3.80;;;3.20;;
21798;SDS011;24973;47.178;15.316;2022-12-29T06:57:17;6.17;;;5.60;;
21798;SDS011;24973;47.178;15.316;2022-12-29T07:00:08;2.90;;;2.63;;
21798;SDS011;24973;47.178;15.316;2022-12-29T07:02:58;5.03;;;4.13;;
21798;SDS011;24973;47.178;15.316;2022-12-29T07:05:47;4.27;;;3.13;;
21798;SDS011;24973;47.178;15.316;2022-12-29T07:08:36;3.20;;;2.33;;
21798;SDS011;24973;47.178;15.316;2022-12-29T07:11:25;7.60;;;2.90;;
21798;SDS011;24973;47.178;15.316;2022-12-29T07:14:13;3.37;;;2.70;;
21798;SDS011;24973;47.178;15.316;2022-12-29T07:17:04;5.27;;;2.17;;
21798;SDS011;24973;47.178;15.316;2022-12-29T07:19:53;2.17;;;2.03;;
21798;SDS011;24973;47.178;15.316;2022-12-29T07:22:42;2.47;;;2.27;;
21798;SDS011;24973;47.178;15.316;2022-12-29T07:25:30;1.87;;;1.47;;
21798;SDS011;24973;47.178;15.316;2022-12-29T07:28:21;2.33;;;2.13;;
21798;SDS011;24973;47.178;15.316;2022-12-29T07:31:12;1.47;;;1.03;;
21798;SDS011;24973;47.178;15.316;2022-12-29T07:34:04;9.07;;;7.00;;
21798;SDS011;24973;47.178;15.316;2022-12-29T07:36:53;6.77;;;5.60;;
21798;SDS011;24973;47.178;15.316;2022-12-29T07:39:42;4.13;;;2.73;;
21798;SDS011;24973;47.178;15.316;2022-12-29T07:42:31;3.70;;;3.37;;
21798;SDS011;24973;47.178;15.316;2022-12-29T07:45:19;1.40;;;1.30;;
21798;SDS011;24973;47.178;15.316;2022-12-29T07:48:08;6.07;;;2.87;;
21798;SDS011;24973;47.178;15.316;2022-12-29T07:50:58;3.17;;;2.87;;
21798;SDS011;24973;47.178;15.316;2022-12-29T07:53:47;6.63;;;4.37;;
21798;SDS011;24973;47.178;15.316;2022-12-29T07:56:36;2.80;;;2.33;;
21798;SDS011;24973;47.178;15.316;2022-12-29T07:59:25;2.23;;;2.13;;
21798;SDS011;24973;47.178;15.316;2022-12-29T08:02:14;2.83;;;2.50;;
21798;SDS011;24973;47.178;15.316;2022-12-29T08:05:03;3.93;;;3.40;;
21798;SDS011;24973;47.178;15.316;2022-12-29T08:07:54;2.67;;;2.47;;
21798;SDS011;24973;47.178;15.316;2022-12-29T08:10:43;5.20;;;3.47;;
21798;SDS011;24973;47.178;15.316;2022-12-29T08:13:32;2.37;;;2.17;;
21798;SDS011;24973;47.178;15.316;2022-12-29T08:16:20;2.50;;;2.30;;
21798;SDS011;24973;47.178;15.316;2022-12-29T08:19:10;3.60;;;3.30;;
21798;SDS011;24973;47.178;15.316;2022-12-29T08:21:59;2.23;;;2.10;;
21798;SDS011;24973;47.178;15.316;2022-12-29T08:24:49;2.17;;;2.00;;
21798;SDS011;24973;47.178;15.316;2022-12-29T08:27:38;2.90;;;2.63;;
21798;SDS011;24973;47.178;15.316;2022-12-29T08:30:27;8.37;;;4.57;;
21798;SDS011;24973;47.178;15.316;2022-12-29T08:33:15;3.23;;;2.93;;
21798;SDS011;24973;47.178;15.316;2022-12-29T08:36:05;4.93;;;3.03;;
21798;SDS011;24973;47.178;15.316;2022-12-29T08:38:55;3.33;;;3.03;;
21798;SDS011;24973;47.178;15.316;2022-12-29T08:41:46;2.77;;;2.57;;
21798;SDS011;24973;47.178;15.316;2022-12-29T08:44:35;5.47;;;3.07;;
21798;SDS011;24973;47.178;15.316;2022-12-29T08:47:23;1.00;;;0.97;;
21798;SDS011;24973;47.178;15.316;2022-12-29T08:50:12;2.80;;;1.63;;
21798;SDS011;24973;47.178;15.316;2022-12-29T08:53:01;2.47;;;2.27;;
21798;SDS011;24973;47.178;15.316;2022-12-29T08:55:54;2.30;;;2.17;;
21798;SDS011;24973;47.178;15.316;2022-12-29T08:58:51;3.53;;;3.00;;
21798;SDS011;24973;47.178;15.316;2022-12-29T09:01:40;3.57;;;3.13;;
21798;SDS011;24973;47.178;15.316;2022-12-29T09:04:29;3.43;;;3.13;;
21798;SDS011;24973;47.178;15.316;2022-12-29T09:07:18;3.70;;;3.17;;
21798;SDS011;24973;47.178;15.316;2022-12-29T09:10:07;5.43;;;3.40;;
21798;SDS011;24973;47.178;15.316;2022-12-29T09:12:56;4.40;;;3.80;;
21798;SDS011;24973;47.178;15.316;2022-12-29T09:15:46;5.07;;;3.83;;
21798;SDS011;24973;47.178;15.316;2022-12-29T09:18:35;6.20;;;4.47;;
21798;SDS011;24973;47.178;15.316;2022-12-29T09:21:24;6.87;;;2.67;;
21798;SDS011;24973;47.178;15.316;2022-12-29T09:24:13;6.07;;;5.37;;
21798;SDS011;24973;47.178;15.316;2022-12-29T09:27:02;11.33;;;5.27;;
21798;SDS011;24973;47.178;15.316;2022-12-29T09:29:51;10.10;;;6.70;;
21798;SDS011;24973;47.178;15.316;2022-12-29T09:32:42;8.37;;;4.27;;
21798;SDS011;24973;47.178;15.316;2022-12-29T09:35:32;3.90;;;3.60;;
21798;SDS011;24973;47.178;15.316;2022-12-29T09:38:21;6.07;;;4.43;;
21798;SDS011;24973;47.178;15.316;2022-12-29T09:41:13;5.17;;;4.67;;
21798;SDS011;24973;47.178;15.316;2022-12-29T09:44:11;16.17;;;4.57;;
21798;SDS011;24973;47.178;15.316;2022-12-29T09:47:05;6.20;;;4.30;;
21798;SDS011;24973;47.178;15.316;2022-12-29T09:50:02;10.27;;;3.60;;
21798;SDS011;24973;47.178;15.316;2022-12-29T09:52:58;7.43;;;4.30;;
21798;SDS011;24973;47.178;15.316;2022-12-29T09:55:54;4.37;;;3.53;;
21798;SDS011;24973;47.178;15.316;2022-12-29T09:58:47;6.73;;;5.50;;
21798;SDS011;24973;47.178;15.316;2022-12-29T10:01:43;6.37;;;4.80;;
21798;SDS011;24973;47.178;15.316;2022-12-29T10:04:39;7.67;;;3.60;;
21798;SDS011;24973;47.178;15.316;2022-12-29T10:07:36;7.70;;;4.27;;
21798;SDS011;24973;47.178;15.316;2022-12-29T10:10:35;7.90;;;3.87;;
21798;SDS011;24973;47.178;15.316;2022-12-29T10:13:31;7.10;;;3.63;;
21798;SDS011;24973;47.178;15.316;2022-12-29T10:16:34;4.83;;;3.63;;
21798;SDS011;24973;47.178;15.316;2022-12-29T10:19:39;8.30;;;4.47;;
21798;SDS011;24973;47.178;15.316;2022-12-29T10:26:13;8.93;;;3.90;;
21798;SDS011;24973;47.178;15.316;2022-12-29T10:29:05;9.13;;;5.28;;
21798;SDS011;24973;47.178;15.316;2022-12-29T10:32:04;5.93;;;4.77;;
21798;SDS011;24973;47.178;15.316;2022-12-29T10:35:10;5.70;;;3.73;;
21798;SDS011;24973;47.178;15.316;2022-12-29T10:38:03;7.13;;;4.50;;
21798;SDS011;24973;47.178;15.316;2022-12-29T10:41:05;5.90;;;4.03;;
21798;SDS011;24973;47.178;15.316;2022-12-29T10:44:02;9.93;;;4.53;;
21798;SDS011;24973;47.178;15.316;2022-12-29T10:46:53;6.10;;;4.50;;
21798;SDS011;24973;47.178;15.316;2022-12-29T10:49:47;4.47;;;4.07;;
21798;SDS011;24973;47.178;15.316;2022-12-29T10:52:36;9.43;;;5.93;;
21798;SDS011;24973;47.178;15.316;2022-12-29T10:55:29;6.90;;;4.27;;
21798;SDS011;24973;47.178;15.316;2022-12-29T11:01:22;4.40;;;3.43;;
21798;SDS011;24973;47.178;15.316;2022-12-29T11:04:22;5.07;;;4.10;;
21798;SDS011;24973;47.178;15.316;2022-12-29T11:07:26;5.33;;;3.60;;
21798;SDS011;24973;47.178;15.316;2022-12-29T11:10:18;4.80;;;3.50;;
21798;SDS011;24973;47.178;15.316;2022-12-29T11:13:25;3.47;;;3.17;;
21798;SDS011;24973;47.178;15.316;2022-12-29T11:16:26;5.60;;;3.53;;
21798;SDS011;24973;47.178;15.316;2022-12-29T11:19:21;8.53;;;4.10;;
21798;SDS011;24973;47.178;15.316;2022-12-29T11:22:14;4.17;;;3.03;;
21798;SDS011;24973;47.178;15.316;2022-12-29T11:25:12;4.77;;;3.27;;
21798;SDS011;24973;47.178;15.316;2022-12-29T11:28:02;6.17;;;4.90;;
21798;SDS011;24973;47.178;15.316;2022-12-29T11:31:05;6.37;;;3.37;;
21798;SDS011;24973;47.178;15.316;2022-12-29T11:33:56;5.63;;;3.47;;
21798;SDS011;24973;47.178;15.316;2022-12-29T11:36:45;4.33;;;3.17;;
21798;SDS011;24973;47.178;15.316;2022-12-29T11:39:39;4.37;;;3.43;;
21798;SDS011;24973;47.178;15.316;2022-12-29T11:42:37;4.80;;;3.70;;
21798;SDS011;24973;47.178;15.316;2022-12-29T11:45:30;4.60;;;3.17;;
21798;SDS011;24973;47.178;15.316;2022-12-29T11:48:31;4.93;;;3.27;;
21798;SDS011;24973;47.178;15.316;2022-12-29T11:51:28;5.57;;;3.37;;
21798;SDS011;24973;47.178;15.316;2022-12-29T11:54:23;3.87;;;2.73;;
21798;SDS011;24973;47.178;15.316;2022-12-29T11:57:17;5.40;;;3.73;;
21798;SDS011;24973;47.178;15.316;2022-12-29T12:00:14;4.67;;;3.60;;
21798;SDS011;24973;47.178;15.316;2022-12-29T12:03:07;4.93;;;3.87;;
21798;SDS011;24973;47.178;15.316;2022-12-29T12:06:07;6.53;;;4.73;;
21798;SDS011;24973;47.178;15.316;2022-12-29T12:09:04;8.20;;;4.00;;
21798;SDS011;24973;47.178;15.316;2022-12-29T12:12:04;6.43;;;3.17;;
21798;SDS011;24973;47.178;15.316;2022-12-29T12:14:58;4.97;;;3.40;;
21798;SDS011;24973;47.178;15.316;2022-12-29T12:17:52;5.00;;;3.10;;
21798;SDS011;24973;47.178;15.316;2022-12-29T12:21:10;3.77;;;2.73;;
21798;SDS011;24973;47.178;15.316;2022-12-29T12:24:47;7.50;;;5.13;;
21798;SDS011;24973;47.178;15.316;2022-12-29T12:27:44;5.47;;;3.23;;
21798;SDS011;24973;47.178;15.316;2022-12-29T12:30:41;3.90;;;3.50;;
21798;SDS011;24973;47.178;15.316;2022-12-29T12:33:38;5.27;;;3.43;;
21798;SDS011;24973;47.178;15.316;2022-12-29T12:36:43;6.53;;;4.37;;
21798;SDS011;24973;47.178;15.316;2022-12-29T12:39:57;9.27;;;3.13;;
21798;SDS011;24973;47.178;15.316;2022-12-29T12:43:39;5.67;;;3.10;;
21798;SDS011;24973;47.178;15.316;2022-12-29T12:46:46;4.07;;;2.40;;
21798;SDS011;24973;47.178;15.316;2022-12-29T12:50:18;5.53;;;2.70;;
21798;SDS011;24973;47.178;15.316;2022-12-29T12:56:46;4.90;;;2.87;;
21798;SDS011;24973;47.178;15.316;2022-12-29T12:59:50;10.50;;;6.20;;
21798;SDS011;24973;47.178;15.316;2022-12-29T13:02:50;4.07;;;3.13;;
21798;SDS011;24973;47.178;15.316;2022-12-29T13:06:01;8.27;;;4.33;;
21798;SDS011;24973;47.178;15.316;2022-12-29T13:09:19;6.23;;;4.93;;
21798;SDS011;24973;47.178;15.316;2022-12-29T13:12:34;4.77;;;4.03;;
21798;SDS011;24973;47.178;15.316;2022-12-29T13:15:37;8.17;;;3.87;;
21798;SDS011;24973;47.178;15.316;2022-12-29T13:18:37;3.90;;;2.80;;
21798;SDS011;24973;47.178;15.316;2022-12-29T13:21:51;6.47;;;3.50;;
21798;SDS011;24973;47.178;15.316;2022-12-29T13:24:56;6.27;;;4.93;;
21798;SDS011;24973;47.178;15.316;2022-12-29T13:28:10;2.50;;;2.27;;
21798;SDS011;24973;47.178;15.316;2022-12-29T13:32:20;2.40;;;2.20;;
21798;SDS011;24973;47.178;15.316;2022-12-29T13:35:23;3.07;;;2.33;;
21798;SDS011;24973;47.178;15.316;2022-12-29T13:38:33;3.93;;;2.63;;
21798;SDS011;24973;47.178;15.316;2022-12-29T13:41:29;3.67;;;2.40;;
21798;SDS011;24973;47.178;15.316;2022-12-29T13:44:23;3.00;;;2.30;;
21798;SDS011;24973;47.178;15.316;2022-12-29T13:47:21;2.43;;;1.80;;
21798;SDS011;24973;47.178;15.316;2022-12-29T13:50:19;5.10;;;3.30;;
21798;SDS011;24973;47.178;15.316;2022-12-29T13:53:14;3.43;;;3.03;;
21798;SDS011;24973;47.178;15.316;2022-12-29T13:56:11;2.93;;;1.97;;
21798;SDS011;24973;47.178;15.316;2022-12-29T13:59:11;3.63;;;2.97;;
21798;SDS011;24973;47.178;15.316;2022-12-29T14:02:11;3.87;;;2.20;;
21798;SDS011;24973;47.178;15.316;2022-12-29T14:05:27;5.30;;;2.00;;
21798;SDS011;24973;47.178;15.316;2022-12-29T14:08:24;4.57;;;2.40;;
21798;SDS011;24973;47.178;15.316;2022-12-29T14:11:15;2.93;;;1.90;;
21798;SDS011;24973;47.178;15.316;2022-12-29T14:14:11;2.77;;;1.93;;
21798;SDS011;24973;47.178;15.316;2022-12-29T14:17:08;4.47;;;1.97;;
21798;SDS011;24973;47.178;15.316;2022-12-29T14:20:15;4.57;;;2.10;;
21798;SDS011;24973;47.178;15.316;2022-12-29T14:26:33;5.00;;;2.80;;
21798;SDS011;24973;47.178;15.316;2022-12-29T14:29:44;5.30;;;3.90;;
21798;SDS011;24973;47.178;15.316;2022-12-29T14:32:37;4.23;;;3.17;;
21798;SDS011;24973;47.178;15.316;2022-12-29T14:38:43;4.57;;;3.37;;
21798;SDS011;24973;47.178;15.316;2022-12-29T14:41:35;5.10;;;2.93;;
21798;SDS011;24973;47.178;15.316;2022-12-29T14:44:29;2.80;;;2.50;;
21798;SDS011;24973;47.178;15.316;2022-12-29T14:47:21;4.20;;;2.50;;
21798;SDS011;24973;47.178;15.316;2022-12-29T14:50:16;3.10;;;2.50;;
21798;SDS011;24973;47.178;15.316;2022-12-29T14:56:37;14.70;;;10.50;;
21798;SDS011;24973;47.178;15.316;2022-12-29T14:59:27;11.97;;;10.83;;
21798;SDS011;24973;47.178;15.316;2022-12-29T15:02:19;6.00;;;4.30;;
21798;SDS011;24973;47.178;15.316;2022-12-29T15:05:24;4.03;;;2.97;;
21798;SDS011;24973;47.178;15.316;2022-12-29T15:08:19;3.00;;;2.73;;
21798;SDS011;24973;47.178;15.316;2022-12-29T15:11:11;2.43;;;2.10;;
21798;SDS011;24973;47.178;15.316;2022-12-29T15:14:23;3.80;;;2.50;;
21798;SDS011;24973;47.178;15.316;2022-12-29T15:17:24;4.03;;;2.47;;
21798;SDS011;24973;47.178;15.316;2022-12-29T15:20:17;5.13;;;3.17;;
21798;SDS011;24973;47.178;15.316;2022-12-29T15:23:12;3.40;;;3.10;;
21798;SDS011;24973;47.178;15.316;2022-12-29T15:26:02;4.93;;;2.97;;
21798;SDS011;24973;47.178;15.316;2022-12-29T15:28:54;4.23;;;3.47;;
21798;SDS011;24973;47.178;15.316;2022-12-29T15:31:45;6.90;;;3.73;;
21798;SDS011;24973;47.178;15.316;2022-12-29T15:34:37;11.80;;;7.67;;
21798;SDS011;24973;47.178;15.316;2022-12-29T15:37:27;9.67;;;6.87;;
21798;SDS011;24973;47.178;15.316;2022-12-29T15:40:23;6.73;;;5.07;;
21798;SDS011;24973;47.178;15.316;2022-12-29T15:43:27;12.87;;;6.83;;
21798;SDS011;24973;47.178;15.316;2022-12-29T15:46:30;6.67;;;5.27;;
21798;SDS011;24973;47.178;15.316;2022-12-29T15:49:19;8.37;;;5.50;;
21798;SDS011;24973;47.178;15.316;2022-12-29T15:52:15;7.40;;;5.50;;
21798;SDS011;24973;47.178;15.316;2022-12-29T15:55:09;9.67;;;5.83;;
21798;SDS011;24973;47.178;15.316;2022-12-29T15:58:18;6.97;;;4.47;;
21798;SDS011;24973;47.178;15.316;2022-12-29T16:01:16;4.27;;;3.40;;
21798;SDS011;24973;47.178;15.316;2022-12-29T16:04:07;5.90;;;4.70;;
21798;SDS011;24973;47.178;15.316;2022-12-29T16:06:57;6.47;;;4.47;;
21798;SDS011;24973;47.178;15.316;2022-12-29T16:09:53;5.63;;;4.20;;
21798;SDS011;24973;47.178;15.316;2022-12-29T16:12:44;10.07;;;6.50;;
21798;SDS011;24973;47.178;15.316;2022-12-29T16:15:33;15.07;;;7.03;;
21798;SDS011;24973;47.178;15.316;2022-12-29T16:18:23;9.47;;;5.63;;
21798;SDS011;24973;47.178;15.316;2022-12-29T16:21:16;9.93;;;5.90;;
21798;SDS011;24973;47.178;15.316;2022-12-29T16:24:12;8.03;;;5.27;;
21798;SDS011;24973;47.178;15.316;2022-12-29T16:27:07;8.43;;;5.33;;
21798;SDS011;24973;47.178;15.316;2022-12-29T16:30:06;12.10;;;6.97;;
21798;SDS011;24973;47.178;15.316;2022-12-29T16:33:05;8.53;;;5.23;;
21798;SDS011;24973;47.178;15.316;2022-12-29T16:36:22;8.27;;;5.83;;
21798;SDS011;24973;47.178;15.316;2022-12-29T16:39:21;11.70;;;6.50;;
21798;SDS011;24973;47.178;15.316;2022-12-29T16:42:34;6.20;;;4.90;;
21798;SDS011;24973;47.178;15.316;2022-12-29T16:49:14;7.17;;;5.20;;
21798;SDS011;24973;47.178;15.316;2022-12-29T16:52:12;10.13;;;6.00;;
21798;SDS011;24973;47.178;15.316;2022-12-29T16:55:14;7.70;;;5.73;;
21798;SDS011;24973;47.178;15.316;2022-12-29T16:58:11;9.50;;;5.63;;
21798;SDS011;24973;47.178;15.316;2022-12-29T17:01:06;5.27;;;4.77;;
21798;SDS011;24973;47.178;15.316;2022-12-29T17:04:04;5.17;;;4.70;;
21798;SDS011;24973;47.178;15.316;2022-12-29T17:06:56;6.43;;;4.60;;
21798;SDS011;24973;47.178;15.316;2022-12-29T17:09:45;3.47;;;3.13;;
21798;SDS011;24973;47.178;15.316;2022-12-29T17:12:34;3.77;;;2.67;;
21798;SDS011;24973;47.178;15.316;2022-12-29T17:15:26;3.83;;;3.50;;
21798;SDS011;24973;47.178;15.316;2022-12-29T17:18:20;3.57;;;3.27;;
21798;SDS011;24973;47.178;15.316;2022-12-29T17:21:08;4.20;;;2.80;;
21798;SDS011;24973;47.178;15.316;2022-12-29T17:23:58;4.10;;;3.47;;
21798;SDS011;24973;47.178;15.316;2022-12-29T17:26:48;4.73;;;3.50;;
21798;SDS011;24973;47.178;15.316;2022-12-29T17:29:40;4.47;;;3.03;;
21798;SDS011;24973;47.178;15.316;2022-12-29T17:32:31;6.03;;;3.40;;
21798;SDS011;24973;47.178;15.316;2022-12-29T17:35:21;5.33;;;3.10;;
21798;SDS011;24973;47.178;15.316;2022-12-29T17:38:14;4.97;;;3.30;;
21798;SDS011;24973;47.178;15.316;2022-12-29T17:41:08;3.10;;;2.57;;
21798;SDS011;24973;47.178;15.316;2022-12-29T17:44:01;7.17;;;3.07;;
21798;SDS011;24973;47.178;15.316;2022-12-29T17:46:50;3.60;;;2.77;;